Time;durP1;ratioP1;P1;durP2;ratioP2;P2;SDS_P1;SDS_P2;PMS_P1;PMS_P2;Temp;Humidity;BMP_temperature;BMP_pressure;BME280_temperature;BME280_humidity;BME280_pressure;Samples;Min_cycle;Max_cycle;Signal;HPM_P1;HPM_P2
2022/10/11 00:00:35;;;;;;;;;;;8.10;99.90;;;6.69;100.00;101362.88;5010477;28;19921;-78
2022/10/11 00:03:02;;;;;;;;;;;8.00;99.90;;;6.76;100.00;101375.56;5013211;28;19920;-77
2022/10/11 00:05:28;;;;;;;;;;;8.10;99.90;;;6.60;100.00;101372.88;5039090;28;20032;-77
2022/10/11 00:07:54;;;;;;;;;;;8.00;99.90;;;6.56;100.00;101376.97;5012044;28;19917;-78
2022/10/11 00:10:20;;;;;;;;;;;8.00;99.90;;;6.51;100.00;101379.34;5007835;28;20440;-78
2022/10/11 00:12:47;;;;;;;;;;;7.90;99.90;;;6.46;100.00;101382.56;5012066;28;19918;-78
2022/10/11 00:15:16;;;;;;;;;;;7.80;99.90;;;6.44;100.00;101388.19;5005144;28;19939;-78
2022/10/11 00:17:42;;;;;;;;;;;7.80;99.90;;;6.37;100.00;101395.31;5008018;28;19921;-77
2022/10/11 00:20:08;;;;;;;;;;;7.70;99.90;;;6.33;100.00;101393.94;5017812;28;19924;-77
2022/10/11 00:22:35;;;;;;;;;;;7.70;99.90;;;6.32;100.00;101395.81;5007726;28;19927;-77
2022/10/11 00:25:01;;;;;;;;;;;7.70;99.90;;;6.29;100.00;101400.72;5020603;28;19971;-77
2022/10/11 00:27:26;;;;;;;;;;;7.70;99.90;;;6.20;100.00;101402.56;5011910;28;19918;-77
2022/10/11 00:29:52;;;;;;;;;;;7.60;99.90;;;6.22;100.00;101397.81;5015123;28;19921;-77
2022/10/11 00:32:18;;;;;;;;;;;7.60;99.90;;;6.24;100.00;101384.97;5010525;28;19918;-77
2022/10/11 00:34:43;;;;;;;;;;;7.70;99.90;;;6.33;100.00;101402.91;5012962;28;19917;-80
2022/10/11 00:37:09;;;;;;;;;;;7.70;99.90;;;6.37;100.00;101416.13;5014858;28;20375;-77
2022/10/11 00:39:35;;;;;;;;;;;7.70;99.90;;;6.31;100.00;101406.81;5017037;28;20331;-77
2022/10/11 00:42:01;;;;;;;;;;;7.70;99.90;;;6.20;100.00;101405.28;5042943;28;19924;-78
2022/10/11 00:44:28;;;;;;;;;;;7.60;99.90;;;6.17;100.00;101420.03;5015059;28;19924;-78
2022/10/11 00:46:56;;;;;;;;;;;7.60;99.90;;;6.12;100.00;101419.69;5009613;28;19917;-78
2022/10/11 00:49:40;;;;;;;;;;;7.50;99.90;;;6.09;100.00;101420.00;5049669;28;20794;-77
2022/10/11 00:52:30;;;;;;;;;;;7.50;99.90;;;6.07;100.00;101419.31;5014982;28;19917;-78
2022/10/11 00:54:58;;;;;;;;;;;7.50;99.90;;;6.00;100.00;101421.00;5010444;28;19979;-77
2022/10/11 00:57:26;;;;;;;;;;;7.40;99.90;;;5.98;100.00;101417.59;5011210;28;19937;-78
2022/10/11 00:59:55;;;;;;;;;;;7.40;99.90;;;5.90;100.00;101416.59;5010946;28;20010;-78
2022/10/11 01:02:22;;;;;;;;;;;7.40;99.90;;;5.84;100.00;101419.97;5018413;28;19921;-77
2022/10/11 01:04:49;;;;;;;;;;;7.30;99.90;;;5.81;100.00;101422.16;5012602;28;20408;-78
2022/10/11 01:07:16;;;;;;;;;;;7.20;99.90;;;5.75;100.00;101416.41;5021742;28;19917;-78
2022/10/11 01:09:41;;;;;;;;;;;7.20;99.90;;;5.65;100.00;101412.13;5012768;28;19976;-78
2022/10/11 01:12:16;;;;;;;;;;;7.10;99.90;;;5.59;100.00;101428.03;5015383;28;19917;-78
2022/10/11 01:15:07;;;;;;;;;;;7.00;99.90;;;5.53;100.00;101419.72;5008650;28;20031;-77
2022/10/11 01:17:39;;;;;;;;;;;7.00;99.90;;;5.60;100.00;101431.56;5019872;28;19925;-77
2022/10/11 01:20:25;;;;;;;;;;;7.00;99.90;;;5.61;100.00;101417.88;5018148;28;19940;-77
2022/10/11 01:23:27;;;;;;;;;;;7.10;99.90;;;5.62;100.00;101429.53;5007178;28;19917;-77
2022/10/11 01:26:18;;;;;;;;;;;7.10;99.90;;;5.59;100.00;101438.84;5010773;28;20008;-77
2022/10/11 01:29:03;;;;;;;;;;;7.10;99.90;;;5.55;100.00;101440.19;5045580;28;19917;-77
2022/10/11 01:31:48;;;;;;;;;;;7.00;99.90;;;5.54;100.00;101430.38;5014594;28;19928;-77
2022/10/11 01:34:23;;;;;;;;;;;7.00;99.90;;;5.51;100.00;101438.81;5014390;28;20067;-76
2022/10/11 01:37:05;;;;;;;;;;;6.90;99.90;;;5.44;100.00;101437.78;5014589;28;19932;-77
2022/10/11 01:39:42;;;;;;;;;;;6.90;99.90;;;5.38;100.00;101443.84;5011827;28;19917;-77
2022/10/11 01:42:11;;;;;;;;;;;6.80;99.90;;;5.33;100.00;101447.91;5008711;28;19998;-76
2022/10/11 01:44:38;;;;;;;;;;;6.80;99.90;;;5.36;100.00;101445.88;5005924;28;20026;-77
2022/10/11 01:47:04;;;;;;;;;;;6.80;99.90;;;5.39;100.00;101449.09;5008065;28;19918;-77
2022/10/11 01:49:30;;;;;;;;;;;6.90;99.90;;;5.39;100.00;101454.50;5010045;28;19917;-77
2022/10/11 01:51:59;;;;;;;;;;;6.80;99.90;;;5.25;100.00;101428.06;5014396;28;19917;-77
2022/10/11 01:54:35;;;;;;;;;;;6.90;99.90;;;5.38;100.00;101451.97;5012448;28;19928;-77
2022/10/11 01:57:39;;;;;;;;;;;6.90;99.90;;;5.26;100.00;101438.72;5015771;28;19921;-78
2022/10/11 02:00:18;;;;;;;;;;;6.80;99.90;;;5.37;100.00;101463.81;5018150;28;19917;-77
2022/10/11 02:02:58;;;;;;;;;;;6.80;99.90;;;5.38;100.00;101460.09;5010285;28;19921;-77
2022/10/11 02:05:59;;;;;;;;;;;6.80;99.90;;;5.29;100.00;101451.91;5012542;28;19923;-77
2022/10/11 02:08:57;;;;;;;;;;;6.80;99.90;;;5.30;100.00;101460.91;4989051;28;19925;-77
2022/10/11 02:11:26;;;;;;;;;;;6.80;99.90;;;5.23;100.00;101460.69;5007283;28;20470;-77
2022/10/11 02:14:08;;;;;;;;;;;6.70;99.90;;;5.19;100.00;101456.63;5014606;28;19925;-77
2022/10/11 02:16:42;;;;;;;;;;;6.70;99.90;;;5.08;100.00;101455.03;5007127;28;19928;-77
2022/10/11 02:19:11;;;;;;;;;;;6.60;99.90;;;5.10;100.00;101463.00;5011935;28;19917;-77
2022/10/11 02:21:41;;;;;;;;;;;6.60;99.90;;;5.04;100.00;101465.34;5008716;28;19921;-77
2022/10/11 02:24:16;;;;;;;;;;;6.50;99.90;;;5.02;100.00;101461.91;5010248;28;19918;-77
2022/10/11 02:26:46;;;;;;;;;;;6.60;99.90;;;5.01;100.00;101467.50;5010073;28;20067;-77
2022/10/11 02:29:15;;;;;;;;;;;6.50;99.90;;;5.02;100.00;101474.63;5010044;28;19925;-77
2022/10/11 02:31:42;;;;;;;;;;;6.50;99.90;;;4.91;100.00;101454.09;5007630;28;19972;-77
2022/10/11 02:34:17;;;;;;;;;;;6.50;99.90;;;5.03;100.00;101477.13;5012782;28;19924;-77
2022/10/11 02:36:58;;;;;;;;;;;6.50;99.90;;;5.00;100.00;101482.03;5010482;28;19925;-77
2022/10/11 02:39:45;;;;;;;;;;;6.50;99.90;;;4.89;100.00;101469.63;5014546;28;20388;-78
2022/10/11 02:42:18;;;;;;;;;;;6.50;99.90;;;4.88;100.00;101473.34;5024300;28;20004;-77
2022/10/11 02:44:52;;;;;;;;;;;6.40;99.90;;;4.85;100.00;101466.38;5007471;28;19960;-77
2022/10/11 02:47:18;;;;;;;;;;;6.40;99.90;;;4.89;100.00;101483.97;5011510;28;19918;-77
2022/10/11 02:49:44;;;;;;;;;;;6.40;99.90;;;4.85;100.00;101476.38;5010075;28;19921;-77
2022/10/11 02:52:09;;;;;;;;;;;6.40;99.90;;;4.88;100.00;101484.16;5010809;28;19917;-78
2022/10/11 02:54:36;;;;;;;;;;;6.40;99.90;;;4.82;100.00;101474.00;5015989;28;19983;-78
2022/10/11 02:57:01;;;;;;;;;;;6.40;99.90;;;4.85;100.00;101482.59;5022373;28;19924;-78
2022/10/11 02:59:27;;;;;;;;;;;6.30;99.90;;;4.84;100.00;101478.22;5015010;28;19988;-78
2022/10/11 03:01:52;;;;;;;;;;;6.40;99.90;;;4.80;100.00;101484.94;5003119;28;19922;-77
2022/10/11 03:04:18;;;;;;;;;;;6.30;99.90;;;4.72;100.00;101474.09;5008647;28;20292;-77
2022/10/11 03:06:44;;;;;;;;;;;6.30;99.90;;;4.67;100.00;101481.81;5017755;28;20285;-78
2022/10/11 03:09:09;;;;;;;;;;;6.10;99.90;;;4.67;100.00;101485.34;5008532;28;20288;-78
2022/10/11 03:11:35;;;;;;;;;;;6.20;99.90;;;4.66;100.00;101480.97;5012645;28;19953;-77
2022/10/11 03:14:01;;;;;;;;;;;6.20;99.90;;;4.64;100.00;101479.41;5027676;28;19917;-78
2022/10/11 03:16:26;;;;;;;;;;;6.20;99.90;;;4.61;100.00;101483.28;5009082;28;19948;-78
2022/10/11 03:18:52;;;;;;;;;;;6.10;99.90;;;4.59;100.00;101494.25;5006121;28;19921;-77
2022/10/11 03:21:17;;;;;;;;;;;6.10;99.90;;;4.52;100.00;101492.34;5008442;28;19952;-82
2022/10/11 03:23:43;;;;;;;;;;;6.10;99.90;;;4.53;100.00;101492.16;5018341;28;19921;-80
2022/10/11 03:26:09;;;;;;;;;;;6.10;99.90;;;4.55;100.00;101500.13;5020361;28;19921;-85
2022/10/11 03:28:34;;;;;;;;;;;6.10;99.90;;;4.63;100.00;101508.31;5019261;28;19921;-83
2022/10/11 03:31:00;;;;;;;;;;;6.10;99.90;;;4.55;100.00;101494.72;5014848;28;19921;-83
2022/10/11 03:33:26;;;;;;;;;;;6.20;99.90;;;4.65;100.00;101508.16;5016254;28;19921;-83
2022/10/11 03:35:51;;;;;;;;;;;6.20;99.90;;;4.71;100.00;101521.03;5011742;28;19952;-84
2022/10/11 03:38:20;;;;;;;;;;;6.20;99.90;;;4.72;100.00;101520.88;5016964;28;19921;-83
2022/10/11 03:40:46;;;;;;;;;;;6.20;99.90;;;4.69;100.00;101514.94;5018919;28;19917;-76
2022/10/11 03:43:12;;;;;;;;;;;6.30;99.90;;;4.76;100.00;101516.00;5009243;28;20072;-83
2022/10/11 03:45:41;;;;;;;;;;;6.30;99.90;;;4.80;100.00;101524.66;5013338;28;19918;-84
2022/10/11 03:48:07;;;;;;;;;;;6.30;99.90;;;4.80;100.00;101521.97;5011452;28;20007;-83
2022/10/11 03:50:32;;;;;;;;;;;6.30;99.90;;;4.74;100.00;101529.66;5017713;28;19917;-78
2022/10/11 03:52:58;;;;;;;;;;;6.30;99.90;;;4.67;100.00;101520.50;5014317;28;19917;-76
2022/10/11 03:55:24;;;;;;;;;;;6.20;99.90;;;4.71;100.00;101531.84;5009595;28;19925;-76
2022/10/11 03:57:49;;;;;;;;;;;6.30;99.90;;;4.72;100.00;101536.25;5004378;28;19969;-76
2022/10/11 04:00:15;;;;;;;;;;;6.20;99.90;;;4.68;100.00;101533.00;5022297;28;19957;-75
2022/10/11 04:02:41;;;;;;;;;;;6.20;99.90;;;4.73;100.00;101549.59;5026693;28;19974;-75
2022/10/11 04:05:07;;;;;;;;;;;6.20;99.90;;;4.65;100.00;101538.72;5026517;28;19916;-75
2022/10/11 04:07:32;;;;;;;;;;;6.20;99.90;;;4.63;100.00;101542.56;5020407;28;19925;-76
2022/10/11 04:09:58;;;;;;;;;;;6.20;99.90;;;4.63;100.00;101554.25;5020954;28;19917;-76
2022/10/11 04:12:24;;;;;;;;;;;6.10;99.90;;;4.53;100.00;101564.31;5020589;28;19916;-75
2022/10/11 04:14:50;;;;;;;;;;;6.00;99.90;;;4.37;100.00;101555.03;5012047;28;19917;-75
2022/10/11 04:17:16;;;;;;;;;;;5.90;99.90;;;4.35;100.00;101558.88;5016213;28;20235;-75
2022/10/11 04:19:41;;;;;;;;;;;5.80;99.90;;;4.25;100.00;101558.97;5026533;28;19921;-75
2022/10/11 04:22:07;;;;;;;;;;;5.80;99.90;;;4.18;100.00;101567.66;5027643;28;20293;-75
2022/10/11 04:24:33;;;;;;;;;;;5.70;99.90;;;4.17;100.00;101565.97;5029206;28;20475;-76
2022/10/11 04:26:58;;;;;;;;;;;5.70;99.90;;;4.12;100.00;101564.75;5024735;28;20372;-75
2022/10/11 04:29:24;;;;;;;;;;;5.70;99.90;;;4.17;100.00;101567.81;5029016;28;19944;-75
2022/10/11 04:31:50;;;;;;;;;;;5.70;99.90;;;4.26;100.00;101577.72;5015966;28;19945;-75
2022/10/11 04:34:16;;;;;;;;;;;5.80;99.90;;;4.28;100.00;101583.81;5015328;28;20276;-77
2022/10/11 04:36:42;;;;;;;;;;;5.70;99.90;;;4.27;100.00;101581.28;5016277;28;20020;-76
2022/10/11 04:39:09;;;;;;;;;;;5.70;99.90;;;4.25;100.00;101591.38;5016018;28;19922;-76
2022/10/11 04:41:35;;;;;;;;;;;5.70;99.90;;;4.27;100.00;101587.50;5021288;28;19923;-77
2022/10/11 04:44:01;;;;;;;;;;;5.80;99.90;;;4.20;100.00;101581.03;5015725;28;20351;-77
2022/10/11 04:46:27;;;;;;;;;;;5.70;99.90;;;4.23;100.00;101590.66;5009720;28;20408;-76
2022/10/11 04:48:53;;;;;;;;;;;5.70;99.90;;;4.15;100.00;101578.78;5014136;28;20015;-77
2022/10/11 04:51:20;;;;;;;;;;;5.70;99.90;;;4.15;100.00;101588.75;5017103;28;19921;-75
2022/10/11 04:53:47;;;;;;;;;;;5.70;99.90;;;4.10;100.00;101581.06;5016406;28;19925;-75
2022/10/11 04:56:14;;;;;;;;;;;5.70;99.90;;;4.14;100.00;101595.97;5024265;28;20279;-75
2022/10/11 04:58:40;;;;;;;;;;;5.60;99.90;;;4.10;100.00;101599.13;5008037;28;20000;-75
2022/10/11 05:01:07;;;;;;;;;;;5.60;99.90;;;4.00;100.00;101605.44;5016014;28;20483;-76
2022/10/11 05:03:33;;;;;;;;;;;5.50;99.90;;;3.95;100.00;101605.03;5023524;28;19924;-76
2022/10/11 05:05:59;;;;;;;;;;;5.50;99.90;;;3.86;100.00;101608.66;5021816;28;19968;-75
2022/10/11 05:08:25;;;;;;;;;;;5.30;99.90;;;3.79;100.00;101618.31;5021282;28;19960;-76
2022/10/11 05:11:01;;;;;;;;;;;5.30;99.90;;;3.72;100.00;101618.09;5020678;28;19964;-75
2022/10/11 05:13:27;;;;;;;;;;;5.20;99.90;;;3.67;100.00;101618.50;5013878;28;19921;-75
2022/10/11 05:15:53;;;;;;;;;;;5.20;99.90;;;3.64;100.00;101613.41;5012948;28;19917;-75
2022/10/11 05:18:19;;;;;;;;;;;5.10;99.90;;;3.58;100.00;101606.75;5010569;28;19925;-77
2022/10/11 05:20:45;;;;;;;;;;;5.10;99.90;;;3.60;100.00;101612.84;5014209;28;19921;-76
2022/10/11 05:23:11;;;;;;;;;;;5.10;99.90;;;3.62;100.00;101626.19;5010498;28;20432;-76
2022/10/11 05:25:36;;;;;;;;;;;5.10;99.90;;;3.69;100.00;101626.44;5017507;28;19921;-77
2022/10/11 05:28:02;;;;;;;;;;;5.10;99.90;;;3.79;100.00;101631.81;5012679;28;19917;-77
2022/10/11 05:30:28;;;;;;;;;;;5.20;99.90;;;3.87;100.00;101630.06;5017352;28;19927;-79
2022/10/11 05:32:54;;;;;;;;;;;5.20;99.90;;;3.82;100.00;101632.38;5013688;28;19921;-80
2022/10/11 05:35:19;;;;;;;;;;;5.30;99.90;;;3.76;100.00;101638.38;5016827;28;20335;-79
2022/10/11 05:37:45;;;;;;;;;;;5.20;99.90;;;3.70;100.00;101628.16;5015097;28;20391;-79
2022/10/11 05:40:11;;;;;;;;;;;5.20;99.90;;;3.73;100.00;101644.06;5016220;28;20296;-80
2022/10/11 05:42:37;;;;;;;;;;;5.20;99.90;;;3.67;100.00;101640.09;5008183;28;19928;-79
2022/10/11 05:45:06;;;;;;;;;;;5.20;99.90;;;3.57;100.00;101634.72;5014468;28;19917;-79
2022/10/11 05:47:32;;;;;;;;;;;5.20;99.90;;;3.59;100.00;101643.53;5023594;28;19917;-89
2022/10/11 05:49:58;;;;;;;;;;;5.10;99.90;;;3.68;100.00;101651.72;5031470;28;19929;-89
2022/10/11 05:52:24;;;;;;;;;;;5.10;99.90;;;3.70;100.00;101647.03;5032186;28;20233;-89
2022/10/11 05:54:49;;;;;;;;;;;5.20;99.90;;;3.78;100.00;101652.56;5022389;28;20147;-92
2022/10/11 05:57:16;;;;;;;;;;;5.20;99.90;;;3.77;100.00;101640.06;5037027;28;19925;-87
2022/10/11 05:59:42;;;;;;;;;;;5.30;99.90;;;3.93;100.00;101660.19;5027644;28;19917;-89
2022/10/11 06:02:12;;;;;;;;;;;5.40;99.90;;;4.03;100.00;101669.09;5039088;28;19924;-90
2022/10/11 06:04:38;;;;;;;;;;;5.50;99.90;;;4.11;100.00;101669.22;5039067;28;19921;-90
2022/10/11 06:07:05;;;;;;;;;;;5.60;99.90;;;4.28;100.00;101669.41;5035090;28;19921;-89
2022/10/11 06:09:31;;;;;;;;;;;5.70;99.90;;;4.40;100.00;101673.59;5045649;28;20319;-89
2022/10/11 06:11:56;;;;;;;;;;;5.80;99.90;;;4.44;100.00;101669.59;5033435;28;19940;-90
2022/10/11 06:14:22;;;;;;;;;;;6.00;99.90;;;4.56;100.00;101678.34;5038144;28;19940;-90
2022/10/11 06:19:30;;;;;;;;;;;6.20;99.90;;;4.74;100.00;101683.78;5024967;23;19933;-93
2022/10/11 06:21:55;;;;;;;;;;;6.20;99.90;;;4.79;100.00;101693.31;4980004;28;19918;-87
2022/10/11 06:24:21;;;;;;;;;;;6.30;99.90;;;4.81;100.00;101680.47;4979962;28;20387;-89
2022/10/11 06:26:50;;;;;;;;;;;6.40;99.90;;;4.95;100.00;101695.31;4987296;28;19902;-90
2022/10/11 06:29:16;;;;;;;;;;;6.40;99.90;;;5.04;100.00;101692.56;4983945;28;19925;-87
2022/10/11 06:31:43;;;;;;;;;;;6.50;99.90;;;5.10;100.00;101692.94;4983584;28;19917;-87
2022/10/11 06:34:08;;;;;;;;;;;6.60;99.90;;;5.16;100.00;101689.59;4982476;28;19917;-85
2022/10/11 06:36:36;;;;;;;;;;;6.70;99.90;;;5.31;100.00;101701.59;4979508;28;19924;-89
2022/10/11 06:39:02;;;;;;;;;;;6.80;99.90;;;5.41;100.00;101709.59;4988629;28;20273;-87
2022/10/11 06:41:29;;;;;;;;;;;6.90;99.90;;;5.51;100.00;101705.97;4979493;28;19918;-89
2022/10/11 06:43:55;;;;;;;;;;;7.00;99.90;;;5.54;100.00;101697.50;4974213;28;20031;-82
2022/10/11 06:46:23;;;;;;;;;;;7.10;99.90;;;5.72;100.00;101708.28;4972962;28;20388;-81
2022/10/11 06:48:50;;;;;;;;;;;7.20;99.90;;;5.83;100.00;101713.44;4978356;28;19968;-80
2022/10/11 06:51:18;;;;;;;;;;;7.30;99.90;;;5.88;100.00;101713.84;4973823;28;20413;-80
2022/10/11 06:53:51;;;;;;;;;;;7.30;99.90;;;5.94;100.00;101706.06;4979629;28;20449;-80
2022/10/11 06:56:17;;;;;;;;;;;7.40;99.90;;;6.00;100.00;101713.56;4980207;28;19965;-79
2022/10/11 06:58:43;;;;;;;;;;;7.50;99.90;;;6.09;100.00;101723.44;4969535;28;19922;-80
2022/10/11 07:01:11;;;;;;;;;;;7.50;99.90;;;6.16;100.00;101721.81;4977512;28;20129;-80
2022/10/11 07:03:37;;;;;;;;;;;7.60;99.90;;;6.20;100.00;101719.59;4975562;28;19940;-80
2022/10/11 07:06:08;;;;;;;;;;;7.70;99.90;;;6.31;100.00;101732.91;4983437;28;19918;-80
2022/10/11 07:08:34;;;;;;;;;;;7.70;99.90;;;6.39;100.00;101737.50;4989995;28;19924;-80
2022/10/11 07:11:01;;;;;;;;;;;7.80;99.90;;;6.47;100.00;101736.69;4981524;28;19918;-82
2022/10/11 07:13:27;;;;;;;;;;;7.90;99.90;;;6.47;100.00;101734.81;4982162;28;19924;-81
2022/10/11 07:15:53;;;;;;;;;;;8.00;99.90;;;6.48;100.00;101722.09;4964028;28;20086;-79
2022/10/11 07:18:19;;;;;;;;;;;8.00;99.90;;;6.61;100.00;101727.94;4971412;28;19945;-81
2022/10/11 07:20:45;;;;;;;;;;;8.10;99.90;;;6.83;100.00;101746.47;4964717;28;19969;-82
2022/10/11 07:23:11;;;;;;;;;;;8.20;99.90;;;6.91;100.00;101743.81;4964565;28;20228;-82
2022/10/11 07:25:37;;;;;;;;;;;8.30;99.90;;;7.03;100.00;101752.47;4962831;28;20496;-82
2022/10/11 07:28:02;;;;;;;;;;;8.40;99.90;;;7.05;100.00;101742.31;4970077;28;20091;-82
2022/10/11 07:30:28;;;;;;;;;;;8.50;99.90;;;7.20;100.00;101754.19;4992524;28;19940;-83
2022/10/11 07:32:54;;;;;;;;;;;8.60;99.90;;;7.30;100.00;101753.19;4988236;28;19917;-83
2022/10/11 07:35:19;;;;;;;;;;;8.70;99.90;;;7.41;100.00;101755.56;4991542;28;19922;-82
2022/10/11 07:37:45;;;;;;;;;;;8.70;99.90;;;7.45;100.00;101737.91;4987758;28;20344;-82
2022/10/11 07:40:11;;;;;;;;;;;8.90;99.90;;;7.71;100.00;101755.91;4992910;28;19924;-82
2022/10/11 07:42:36;;;;;;;;;;;9.00;99.90;;;7.86;100.00;101758.78;4989500;28;19922;-80
2022/10/11 07:45:03;;;;;;;;;;;9.10;99.90;;;8.03;100.00;101761.50;4981640;28;19917;-81
2022/10/11 07:47:29;;;;;;;;;;;9.20;99.90;;;8.14;100.00;101752.13;4989475;28;19918;-81
2022/10/11 07:49:54;;;;;;;;;;;9.30;99.90;;;8.30;100.00;101765.66;4974061;28;19921;-82
2022/10/11 07:52:20;;;;;;;;;;;9.40;99.90;;;8.46;100.00;101763.91;4974432;28;19969;-82
2022/10/11 07:54:49;;;;;;;;;;;9.50;99.90;;;8.55;100.00;101762.06;4972845;28;19918;-81
2022/10/11 07:57:15;;;;;;;;;;;9.60;99.90;;;8.70;100.00;101764.88;4971257;28;19929;-85
2022/10/11 07:59:41;;;;;;;;;;;9.70;99.90;;;8.89;100.00;101772.63;4996149;28;19921;-82
2022/10/11 08:02:13;;;;;;;;;;;9.90;99.90;;;9.01;100.00;101783.09;4995727;28;19958;-84
2022/10/11 08:04:38;;;;;;;;;;;10.00;99.90;;;9.06;100.00;101776.09;4995095;28;19918;-85
2022/10/11 08:07:04;;;;;;;;;;;10.10;99.90;;;9.23;100.00;101773.25;5008127;28;20032;-83
2022/10/11 08:09:30;;;;;;;;;;;10.30;99.90;;;9.31;100.00;101770.50;5003280;28;20004;-83
2022/10/11 08:11:56;;;;;;;;;;;10.40;99.90;;;9.45;100.00;101778.88;4993905;28;19917;-82
2022/10/11 08:14:22;;;;;;;;;;;10.50;99.90;;;9.56;100.00;101781.19;4980419;28;19926;-83
2022/10/11 08:16:48;;;;;;;;;;;10.60;99.90;;;9.55;100.00;101763.16;4984872;28;20008;-85
2022/10/11 08:19:14;;;;;;;;;;;10.80;99.90;;;9.80;100.00;101784.72;4997739;28;19950;-81
2022/10/11 08:21:40;;;;;;;;;;;10.90;99.90;;;10.02;100.00;101780.28;4978691;28;20380;-82
2022/10/11 08:24:06;;;;;;;;;;;11.00;99.90;;;10.07;100.00;101780.56;4989239;28;20013;-82
2022/10/11 08:26:33;;;;;;;;;;;11.20;99.90;;;10.14;100.00;101786.13;4984745;28;19918;-86
2022/10/11 08:29:03;;;;;;;;;;;11.30;99.90;;;10.36;100.00;101789.81;4983455;28;20076;-81
2022/10/11 08:31:30;;;;;;;;;;;11.50;99.90;;;10.49;100.00;101788.34;4988301;28;20083;-83
2022/10/11 08:33:56;;;;;;;;;;;11.60;99.90;;;10.53;100.00;101780.63;4996246;28;19949;-84
2022/10/11 08:36:22;;;;;;;;;;;11.70;99.90;;;10.77;100.00;101793.97;4994393;28;19941;-82
2022/10/11 08:38:48;;;;;;;;;;;11.90;99.90;;;11.02;100.00;101799.09;4983880;28;19922;-85
2022/10/11 08:41:28;;;;;;;;;;;12.20;99.90;;;11.04;99.19;101804.38;4991943;28;19924;-83
2022/10/11 08:44:03;;;;;;;;;;;12.30;99.90;;;11.17;97.92;101792.78;4994093;28;19914;-82
2022/10/11 08:46:32;;;;;;;;;;;12.50;99.90;;;11.39;96.95;101806.44;5004721;28;19942;-83
2022/10/11 08:48:59;;;;;;;;;;;12.70;99.90;;;11.47;94.31;101806.31;4992977;28;19918;-84
2022/10/11 08:51:38;;;;;;;;;;;12.80;99.90;;;11.64;92.70;101813.19;4997327;28;19922;-86
2022/10/11 08:54:12;;;;;;;;;;;12.90;99.90;;;11.76;94.72;101809.97;4993478;28;19909;-86
2022/10/11 08:56:40;;;;;;;;;;;13.00;99.90;;;11.59;97.01;101812.94;4993737;28;19918;-84
2022/10/11 08:59:11;;;;;;;;;;;13.10;99.90;;;11.80;98.24;101803.91;4984356;28;19928;-86
2022/10/11 09:01:45;;;;;;;;;;;13.10;99.90;;;11.91;97.01;101813.44;4971872;28;20365;-85
2022/10/11 09:04:15;;;;;;;;;;;13.20;99.90;;;11.98;93.46;101812.69;4994558;28;19918;-85
2022/10/11 09:06:41;;;;;;;;;;;13.30;99.90;;;12.07;93.16;101814.25;4979082;28;19941;-83
2022/10/11 09:09:35;;;;;;;;;;;13.40;99.90;;;12.25;93.02;101821.13;4975641;28;19910;-83
2022/10/11 09:12:17;;;;;;;;;;;13.50;99.90;;;12.44;89.90;101808.63;4973755;28;20373;-86
2022/10/11 09:14:52;;;;;;;;;;;13.70;99.90;;;12.52;90.84;101809.31;4990295;28;19957;-84
2022/10/11 09:17:30;;;;;;;;;;;13.80;99.90;;;12.64;88.79;101808.72;4991219;28;19929;-86
2022/10/11 09:20:17;;;;;;;;;;;13.90;99.90;;;12.76;86.82;101809.84;4989566;28;19921;-86
2022/10/11 09:22:53;;;;;;;;;;;14.00;99.90;;;12.96;87.96;101817.28;4995619;28;19929;-85
2022/10/11 09:25:19;;;;;;;;;;;14.20;99.90;;;12.94;83.48;101811.19;4985650;28;20425;-83
2022/10/11 09:28:19;;;;;;;;;;;14.20;99.90;;;12.89;82.74;101821.91;4995089;28;19917;-83
2022/10/11 09:30:51;;;;;;;;;;;14.30;99.90;;;13.33;82.97;101825.22;4975423;28;19918;-81
2022/10/11 09:33:31;;;;;;;;;;;14.50;99.90;;;13.54;81.49;101824.28;4971122;28;19918;-84
2022/10/11 09:35:57;;;;;;;;;;;14.70;99.90;;;13.79;78.24;101816.28;4967570;28;19977;-81
2022/10/11 09:38:35;;;;;;;;;;;15.00;99.90;;;13.88;77.76;101813.31;4967642;28;20011;-86
2022/10/11 09:41:00;;;;;;;;;;;15.40;99.90;;;13.76;75.53;101822.19;4968063;28;19929;-86
2022/10/11 09:43:26;;;;;;;;;;;16.00;99.90;;;14.32;75.95;101819.19;4964860;28;20830;-85
2022/10/11 09:45:52;;;;;;;;;;;16.70;99.90;;;14.78;72.40;101821.03;4986012;28;19925;-82
2022/10/11 09:48:37;;;;;;;;;;;17.50;99.90;;;15.07;69.71;101821.53;4993232;28;19917;-88
2022/10/11 09:51:07;;;;;;;;;;;18.30;97.60;;;16.63;62.05;101821.22;4991041;28;20012;-86
2022/10/11 09:53:51;;;;;;;;;;;19.60;92.90;;;17.82;57.75;101825.34;4969931;28;20285;-87
2022/10/11 09:56:17;;;;;;;;;;;20.10;91.40;;;18.94;55.63;101821.84;4969417;28;19977;-84
2022/10/11 09:58:43;;;;;;;;;;;20.70;90.10;;;19.36;52.35;101831.00;4981972;28;19922;-86
2022/10/11 10:01:12;;;;;;;;;;;20.90;85.20;;;21.07;46.26;101826.19;4986102;28;19925;-87
2022/10/11 10:03:42;;;;;;;;;;;21.50;79.50;;;21.89;43.29;101832.88;4993084;28;19921;-88
2022/10/11 10:06:14;;;;;;;;;;;22.00;78.40;;;21.79;43.38;101834.44;4989822;28;19951;-87
2022/10/11 10:08:41;;;;;;;;;;;22.10;77.50;;;22.94;40.83;101844.38;4984946;28;19925;-87
2022/10/11 10:11:08;;;;;;;;;;;;;;;22.82;39.92;101844.59;4985272;28;20346;-88
2022/10/11 10:13:37;;;;;;;;;;;;;;;23.68;37.70;101841.53;4974132;28;19922;-89
2022/10/11 10:16:04;;;;;;;;;;;;;;;21.42;39.20;101841.53;4995924;28;20387;-86
2022/10/11 10:18:35;;;;;;;;;;;;;;;20.64;40.76;101847.22;4998761;28;19953;-84
2022/10/11 10:21:02;;;;;;;;;;;23.10;73.30;;;19.62;41.85;101843.38;4983399;28;20467;-86
2022/10/11 10:23:30;;;;;;;;;;;21.80;69.10;;;19.30;42.70;101843.88;4990035;28;20212;-87
2022/10/11 10:26:10;;;;;;;;;;;21.30;69.90;;;16.13;49.65;101844.16;4986408;28;21496;-85
2022/10/11 10:28:36;;;;;;;;;;;19.60;72.80;;;15.53;53.35;101843.50;4983647;28;20396;-85
2022/10/11 10:31:01;;;;;;;;;;;18.10;79.50;;;15.46;54.19;101840.78;4969725;28;20353;-84
2022/10/11 10:33:33;;;;;;;;;;;17.50;83.40;;;15.23;53.90;101841.34;4972156;28;19995;-84
2022/10/11 10:36:22;;;;;;;;;;;17.10;83.70;;;15.36;53.63;101835.78;4965103;28;20291;-85
2022/10/11 10:38:53;;;;;;;;;;;17.00;85.60;;;15.03;54.91;101831.28;4967253;28;20381;-84
2022/10/11 10:41:19;;;;;;;;;;;16.70;86.70;;;15.72;51.29;101835.34;4971828;28;20018;-80
2022/10/11 10:43:52;;;;;;;;;;;17.00;84.50;;;15.19;53.17;101831.88;4967741;28;20036;-83
2022/10/11 10:46:35;;;;;;;;;;;17.00;84.10;;;15.95;49.52;101832.88;4968549;28;19922;-84
2022/10/11 10:49:14;;;;;;;;;;;17.20;81.50;;;17.52;46.96;101839.22;4967814;28;19922;-86
2022/10/11 10:52:11;;;;;;;;;;;18.10;80.40;;;17.98;45.54;101839.56;4968805;28;19926;-88
2022/10/11 10:54:55;;;;;;;;;;;18.80;77.50;;;18.52;44.51;101838.66;4962524;28;19925;-88
2022/10/11 10:57:59;;;;;;;;;;;19.80;76.20;;;18.07;43.29;101829.88;4965944;28;20344;-86
2022/10/11 11:00:32;;;;;;;;;;;19.40;74.50;;;18.85;41.76;101833.56;4967618;28;19926;-89
2022/10/11 11:03:09;;;;;;;;;;;19.90;72.50;;;19.28;40.57;101829.47;4965996;28;19933;-87
2022/10/11 11:05:47;;;;;;;;;;;20.50;70.00;;;20.26;38.80;101850.56;4972715;28;19965;-88
2022/10/11 11:08:41;;;;;;;;;;;21.30;68.30;;;19.19;39.58;101830.94;4976474;28;19922;-84
2022/10/11 11:11:18;;;;;;;;;;;21.00;67.20;;;19.28;40.49;101839.69;4971051;28;19925;-84
2022/10/11 11:14:14;;;;;;;;;;;20.60;69.60;;;20.26;38.59;101847.81;4966541;28;19922;-84
2022/10/11 11:17:00;;;;;;;;;;;21.00;67.70;;;20.37;38.11;101837.72;4978861;28;19922;-83
2022/10/11 11:19:50;;;;;;;;;;;21.50;66.40;;;19.54;39.19;101838.25;4987573;28;20485;-84
2022/10/11 11:22:37;;;;;;;;;;;21.30;66.20;;;18.77;40.58;101827.31;4989340;28;19948;-81
2022/10/11 11:25:15;;;;;;;;;;;21.20;65.70;;;19.18;38.53;101834.81;4984305;28;20023;-83
2022/10/11 11:27:46;;;;;;;;;;;20.90;65.20;;;20.10;37.74;101840.34;4986981;28;19922;-81
2022/10/11 11:30:31;;;;;;;;;;;21.50;65.80;;;18.39;40.84;101839.72;4980172;28;19932;-84
2022/10/11 11:33:41;;;;;;;;;;;20.40;65.80;;;18.30;40.88;101827.34;4980765;28;19924;-80